CheckWX is a tool to help pilots better visualize weather data.  It is not intended as a substitute for an official pre-flight weather briefing.

19:42:39 UTC

KBGM TAF
Greater Binghamton / Edwin A Link Field Airport
Binghamton, New York, USA
KBGM 211735Z 2118/2218 VRB04KT P6SM FEW100 SCT250 FM220200 18005KT P6SM FEW150 SCT250 FM221400 21007KT P6SM SCT250 FM221700 22010KT P6SM SCT070 BKN150

Sep-21@
18:00 UTC

Sep-21 @ 18:00 UTC

Sep-22@
02:00 UTC

Sep-22 @ 02:00 UTC

KBGM 211735Z 2118/2218 VRB04KT P6SM FEW100 SCT250
Wind
  • Variable at 4 KTS
Cloud Levels
  • Few at 10,000' AGL
  • Scattered at 25,000' AGL

Sep-22@
02:00 UTC

Sep-22 @ 02:00 UTC

Sep-22@
14:00 UTC

Sep-22 @ 14:00 UTC

FM220200 18005KT P6SM FEW150 SCT250

From

From Standard forecast or significant change

Wind
  • 180° at 5 KTS
Cloud Levels
  • Few at 15,000' AGL
  • Scattered at 25,000' AGL

Sep-22@
14:00 UTC

Sep-22 @ 14:00 UTC

Sep-22@
17:00 UTC

Sep-22 @ 17:00 UTC

FM221400 21007KT P6SM SCT250

From

From Standard forecast or significant change

Wind
  • 210° at 7 KTS
Cloud Levels
  • Scattered at 25,000' AGL

Sep-22@
17:00 UTC

Sep-22 @ 17:00 UTC

Sep-22@
18:00 UTC

Sep-22 @ 18:00 UTC

FM221700 22010KT P6SM SCT070 BKN150

From

From Standard forecast or significant change

Wind
  • 220° at 10 KTS
Cloud Levels
  • Scattered at 7,000' AGL
  • Broken at 15,000' AGL